createdAt,value
2022-08-10T00:01:55.744Z,16.29
2022-08-10T00:04:26.317Z,16.24
2022-08-10T00:06:56.432Z,16.20
2022-08-10T00:09:25.809Z,16.16
2022-08-10T00:11:54.664Z,16.10
2022-08-10T00:14:25.522Z,16.08
2022-08-10T00:16:54.369Z,16.04
2022-08-10T00:19:23.380Z,15.98
2022-08-10T00:21:53.754Z,15.94
2022-08-10T00:24:22.783Z,15.91
2022-08-10T00:28:01.749Z,15.84
2022-08-10T00:29:42.442Z,15.80
2022-08-10T00:32:14.655Z,15.76
2022-08-10T00:34:43.730Z,15.71
2022-08-10T00:37:17.248Z,15.67
2022-08-10T00:39:46.721Z,15.62
2022-08-10T00:42:17.213Z,15.58
2022-08-10T00:44:49.939Z,15.53
2022-08-10T00:47:36.710Z,15.49
2022-08-10T00:50:08.729Z,15.47
2022-08-10T00:52:41.208Z,15.42
2022-08-10T00:55:10.824Z,15.38
2022-08-10T00:57:40.754Z,15.34
2022-08-10T01:00:11.603Z,15.31
2022-08-10T01:02:40.709Z,15.27
2022-08-10T01:05:14.356Z,15.27
2022-08-10T01:08:27.099Z,15.23
2022-08-10T01:11:07.082Z,15.21
2022-08-10T01:14:06.498Z,15.18
2022-08-10T01:16:45.852Z,15.11
2022-08-10T01:19:39.363Z,15.06
2022-08-10T01:22:58.184Z,15.04
2022-08-10T01:26:12.538Z,15.03
2022-08-10T01:28:57.698Z,14.97
2022-08-10T01:31:38.829Z,14.91
2022-08-10T01:34:15.752Z,14.86
2022-08-10T01:36:53.524Z,14.80
2022-08-10T01:39:27.057Z,14.77
2022-08-10T01:42:02.499Z,14.73
2022-08-10T01:44:38.420Z,14.68
2022-08-10T01:47:32.722Z,14.67
2022-08-10T01:50:08.044Z,14.61
2022-08-10T01:52:43.003Z,14.56
2022-08-10T01:55:15.138Z,14.49
2022-08-10T01:57:46.859Z,14.46
2022-08-10T02:00:16.664Z,14.43
2022-08-10T02:02:51.173Z,14.39
2022-08-10T02:05:23.133Z,14.35
2022-08-10T02:07:53.067Z,14.33
2022-08-10T02:10:25.282Z,14.30
2022-08-10T02:12:58.233Z,14.28
2022-08-10T02:15:33.504Z,14.25
2022-08-10T02:18:11.238Z,14.21
2022-08-10T02:20:46.483Z,14.17
2022-08-10T02:23:20.564Z,14.15
2022-08-10T02:25:52.888Z,14.12
2022-08-10T02:28:30.732Z,14.07
2022-08-10T02:31:06.540Z,14.02
2022-08-10T02:33:56.802Z,13.97
2022-08-10T02:36:32.254Z,13.96
2022-08-10T02:39:06.201Z,13.96
2022-08-10T02:45:12.482Z,13.94
2022-08-10T02:45:21.693Z,13.89
2022-08-10T02:47:51.072Z,13.84
2022-08-10T02:50:29.334Z,13.79
2022-08-10T02:53:06.455Z,13.75
2022-08-10T02:55:44.006Z,13.72
2022-08-10T02:58:24.318Z,13.69
2022-08-10T03:00:57.560Z,13.66
2022-08-10T03:03:34.300Z,13.61
2022-08-10T03:06:12.013Z,13.59
2022-08-10T03:08:45.219Z,13.56
2022-08-10T03:12:36.072Z,13.52
2022-08-10T03:14:19.106Z,13.50
2022-08-10T03:16:49.795Z,13.50
2022-08-10T03:20:33.463Z,13.49
2022-08-10T03:22:13.779Z,13.47
2022-08-10T03:24:45.246Z,13.45
2022-08-10T03:27:16.351Z,13.44
2022-08-10T03:30:29.881Z,13.42
2022-08-10T03:32:36.324Z,13.39
2022-08-10T03:35:08.959Z,13.36
2022-08-10T03:37:40.308Z,13.34
2022-08-10T03:40:10.859Z,13.30
2022-08-10T03:42:41.798Z,13.25
2022-08-10T03:45:12.059Z,13.18
2022-08-10T03:47:44.288Z,13.13
2022-08-10T03:50:45.532Z,13.11
2022-08-10T03:53:05.696Z,13.08
2022-08-10T03:56:28.529Z,13.06
2022-08-10T03:58:24.721Z,13.07
2022-08-10T04:00:54.533Z,13.07
2022-08-10T04:03:23.840Z,13.08
2022-08-10T04:05:59.399Z,13.04
2022-08-10T04:08:30.109Z,13.01
2022-08-10T04:10:59.111Z,12.97
2022-08-10T04:13:27.951Z,12.95
2022-08-10T04:15:56.897Z,12.91
2022-08-10T04:18:25.652Z,12.90
2022-08-10T04:21:02.290Z,12.90
2022-08-10T04:23:37.648Z,12.90
2022-08-10T04:26:07.250Z,12.86
2022-08-10T04:28:36.728Z,12.85
2022-08-10T04:31:09.048Z,12.86
2022-08-10T04:33:46.561Z,12.89
2022-08-10T04:36:18.053Z,12.90
2022-08-10T04:38:52.405Z,12.91
2022-08-10T04:41:22.499Z,12.90
2022-08-10T04:43:51.578Z,12.91
2022-08-10T04:46:55.764Z,12.94
2022-08-10T04:49:54.920Z,12.97
2022-08-10T04:52:04.791Z,12.98
2022-08-10T04:54:34.992Z,13.04
2022-08-10T04:57:04.433Z,13.09
2022-08-10T04:59:33.451Z,13.14
2022-08-10T05:02:28.101Z,13.20
2022-08-10T05:04:51.390Z,13.26
2022-08-10T05:07:20.427Z,13.32
2022-08-10T05:10:02.911Z,13.36
2022-08-10T05:12:37.414Z,13.40
2022-08-10T05:15:12.893Z,13.45
2022-08-10T05:18:06.825Z,13.53
2022-08-10T05:20:32.716Z,13.59
2022-08-10T05:23:01.531Z,13.65
2022-08-10T05:25:32.983Z,13.74
2022-08-10T05:28:07.387Z,13.81
2022-08-10T05:30:36.597Z,13.87
2022-08-10T05:33:08.783Z,13.93
2022-08-10T05:35:57.115Z,13.98
2022-08-10T05:38:28.362Z,14.05
2022-08-10T05:40:59.154Z,14.14
2022-08-10T05:43:28.848Z,14.23
2022-08-10T05:46:19.566Z,14.32
2022-08-10T05:48:59.640Z,14.43
2022-08-10T05:51:30.930Z,14.53
2022-08-10T05:54:06.730Z,14.65
2022-08-10T05:56:56.421Z,14.78
2022-08-10T06:00:29.306Z,14.89
2022-08-10T06:02:41.704Z,15.07
2022-08-10T06:05:14.605Z,15.23
2022-08-10T06:07:49.091Z,15.36
2022-08-10T06:10:19.699Z,15.49
2022-08-10T06:13:30.091Z,15.57
2022-08-10T06:16:07.890Z,15.81
2022-08-10T06:18:38.252Z,15.98
2022-08-10T06:21:09.534Z,16.13
2022-08-10T06:23:40.111Z,16.28
2022-08-10T06:26:14.134Z,16.45
2022-08-10T06:28:56.940Z,16.61
2022-08-10T06:31:48.089Z,16.78
2022-08-10T06:34:25.447Z,17.03
2022-08-10T06:36:58.550Z,17.24
2022-08-10T06:39:36.465Z,17.44
2022-08-10T06:42:18.346Z,17.66
2022-08-10T06:45:01.590Z,17.89
2022-08-10T06:47:46.081Z,18.13
2022-08-10T06:50:35.124Z,18.34
2022-08-10T06:53:17.525Z,18.59
2022-08-10T06:55:56.843Z,18.82
2022-08-10T06:58:33.303Z,19.05
2022-08-10T07:01:08.087Z,19.27
2022-08-10T07:03:45.354Z,19.50
2022-08-10T07:06:20.336Z,19.73
2022-08-10T07:08:52.209Z,19.98
2022-08-10T07:11:23.992Z,20.25
2022-08-10T07:14:15.901Z,20.52
2022-08-10T07:16:48.732Z,20.84
2022-08-10T07:19:19.921Z,21.17
2022-08-10T07:21:50.548Z,21.44
2022-08-10T07:24:29.086Z,21.72
2022-08-10T07:26:59.592Z,22.00
2022-08-10T07:29:54.060Z,22.27
2022-08-10T07:32:24.299Z,22.59
2022-08-10T07:34:57.163Z,22.92
2022-08-10T07:37:30.191Z,23.25
2022-08-10T07:40:04.186Z,23.51
2022-08-10T07:42:35.126Z,23.72
2022-08-10T07:45:06.149Z,23.90
2022-08-10T07:47:52.888Z,24.21
2022-08-10T07:50:26.650Z,24.57
2022-08-10T07:53:02.422Z,24.88
2022-08-10T07:56:05.316Z,25.23
2022-08-10T07:58:31.104Z,25.40
2022-08-10T08:01:02.225Z,25.62
2022-08-10T08:03:34.876Z,25.87
2022-08-10T08:06:12.095Z,26.16
2022-08-10T08:08:45.842Z,26.29
2022-08-10T08:11:26.202Z,26.43
2022-08-10T08:13:57.341Z,26.66
2022-08-10T08:16:27.258Z,26.90
2022-08-10T08:19:27.062Z,27.19
2022-08-10T08:24:10.787Z,27.38
2022-08-10T08:24:43.234Z,27.61
2022-08-10T08:27:16.674Z,27.81
2022-08-10T08:29:49.168Z,27.98
2022-08-10T08:32:22.680Z,28.20
2022-08-10T08:34:58.244Z,28.47
2022-08-10T08:38:28.773Z,28.76
2022-08-10T08:40:27.438Z,29.07
2022-08-10T08:43:31.498Z,29.31
2022-08-10T08:46:41.304Z,29.40
2022-08-10T08:50:08.234Z,29.43
2022-08-10T08:52:42.780Z,29.58
2022-08-10T08:56:04.062Z,29.63
2022-08-10T08:59:07.054Z,29.77
2022-08-10T09:01:59.580Z,30.02
2022-08-10T09:04:57.276Z,30.06
2022-08-10T09:08:02.629Z,30.20
2022-08-10T09:10:44.344Z,30.15
2022-08-10T09:13:26.993Z,30.20
2022-08-10T09:16:25.636Z,30.39
2022-08-10T09:19:07.994Z,30.65
2022-08-10T09:21:58.597Z,30.99
2022-08-10T09:24:50.989Z,31.01
2022-08-10T09:27:23.848Z,31.05
2022-08-10T09:29:57.815Z,31.40
2022-08-10T09:36:13.563Z,31.75
2022-08-10T09:36:28.949Z,32.33
2022-08-10T09:38:53.051Z,32.89
2022-08-10T09:41:36.911Z,33.15
2022-08-10T09:44:14.814Z,33.28
2022-08-10T09:47:00.261Z,33.32
2022-08-10T09:49:54.434Z,33.48
2022-08-10T09:52:32.986Z,33.26
2022-08-10T09:55:13.949Z,33.26
2022-08-10T09:58:01.991Z,33.50
2022-08-10T10:00:36.575Z,33.66
2022-08-10T10:03:20.532Z,33.68
2022-08-10T10:05:57.639Z,33.53
2022-08-10T10:08:32.165Z,33.33
2022-08-10T10:11:16.229Z,32.88
2022-08-10T10:14:02.489Z,32.73
2022-08-10T10:16:52.988Z,32.83
2022-08-10T10:19:53.754Z,32.88
2022-08-10T10:22:44.441Z,33.01
2022-08-10T10:25:50.139Z,33.24
2022-08-10T10:29:07.011Z,33.26
2022-08-10T10:31:32.378Z,33.17
2022-08-10T10:34:15.052Z,33.47
2022-08-10T10:36:46.855Z,33.61
2022-08-10T10:39:23.948Z,33.64
2022-08-10T10:42:04.620Z,33.60
2022-08-10T10:44:53.727Z,33.51
2022-08-10T10:47:54.836Z,33.33
2022-08-10T10:50:32.475Z,33.65
2022-08-10T10:53:15.108Z,33.92
2022-08-10T10:56:14.182Z,33.61
2022-08-10T10:58:56.925Z,33.44
2022-08-10T11:01:39.499Z,33.30
2022-08-10T11:04:24.230Z,33.46
2022-08-10T11:07:11.263Z,33.56
2022-08-10T11:10:05.465Z,34.00
2022-08-10T11:12:50.963Z,34.52
2022-08-10T11:15:27.947Z,34.26
2022-08-10T11:18:04.962Z,34.06
2022-08-10T11:20:47.678Z,33.68
2022-08-10T11:23:27.293Z,33.42
2022-08-10T11:26:09.149Z,33.31
2022-08-10T11:28:47.489Z,33.46
2022-08-10T11:31:29.801Z,33.85
2022-08-10T11:34:47.857Z,34.35
2022-08-10T11:37:11.606Z,34.59
2022-08-10T11:39:52.418Z,34.80
2022-08-10T11:42:36.608Z,34.64
2022-08-10T11:45:13.145Z,34.42
2022-08-10T11:47:51.889Z,34.36
2022-08-10T11:50:29.463Z,34.42
2022-08-10T11:53:14.570Z,34.13
2022-08-10T11:55:50.223Z,34.25
2022-08-10T11:58:41.141Z,34.20
2022-08-10T12:01:16.263Z,34.53
2022-08-10T12:03:48.605Z,34.28
2022-08-10T12:06:53.826Z,34.25
2022-08-10T12:10:08.981Z,34.18
2022-08-10T12:12:04.392Z,34.43
2022-08-10T12:14:42.436Z,34.42
2022-08-10T12:17:18.141Z,34.55
2022-08-10T12:20:02.075Z,34.98
2022-08-10T12:22:42.439Z,35.34
2022-08-10T12:25:56.523Z,34.99
2022-08-10T12:28:15.744Z,34.73
2022-08-10T12:31:01.397Z,34.60
2022-08-10T12:34:01.464Z,34.56
2022-08-10T12:36:37.899Z,34.53
2022-08-10T12:39:16.108Z,34.48
2022-08-10T12:42:00.968Z,34.64
2022-08-10T12:44:42.250Z,34.94
2022-08-10T12:47:27.762Z,34.90
2022-08-10T12:50:31.095Z,34.48
2022-08-10T12:53:18.619Z,34.29
2022-08-10T12:55:51.555Z,34.17
2022-08-10T12:58:57.830Z,34.49
2022-08-10T13:01:16.982Z,34.69
2022-08-10T13:04:20.693Z,34.62
2022-08-10T13:06:43.459Z,35.08
2022-08-10T13:09:13.992Z,35.34
2022-08-10T13:12:35.043Z,35.49
2022-08-10T13:14:50.786Z,35.66
2022-08-10T13:17:38.667Z,35.67
2022-08-10T13:20:19.317Z,35.72
2022-08-10T13:22:52.679Z,35.65
2022-08-10T13:25:29.829Z,35.54
2022-08-10T13:28:35.454Z,35.70
2022-08-10T13:30:58.281Z,35.98
2022-08-10T13:34:39.633Z,36.25
2022-08-10T13:36:28.965Z,36.60
2022-08-10T13:38:59.463Z,36.73
2022-08-10T13:41:31.412Z,36.64
2022-08-10T13:44:02.679Z,36.59
2022-08-10T13:46:32.793Z,36.28
2022-08-10T13:49:07.801Z,36.66
2022-08-10T13:51:54.481Z,36.92
2022-08-10T13:54:37.258Z,36.94
2022-08-10T13:57:07.807Z,36.90
2022-08-10T14:00:34.596Z,36.75
2022-08-10T14:02:35.174Z,36.65
2022-08-10T14:05:05.980Z,36.73
2022-08-10T14:08:00.127Z,36.85
2022-08-10T14:11:08.858Z,36.66
2022-08-10T14:13:28.733Z,36.43
2022-08-10T14:15:59.969Z,36.38
2022-08-10T14:18:36.438Z,36.31
2022-08-10T14:21:06.672Z,35.48
2022-08-10T14:23:42.332Z,35.51
2022-08-10T14:26:27.020Z,35.88
2022-08-10T14:29:04.275Z,36.08
2022-08-10T14:31:38.239Z,36.08
2022-08-10T14:34:10.956Z,36.37
2022-08-10T14:36:47.241Z,36.49
2022-08-10T14:39:27.241Z,36.61
2022-08-10T14:42:12.182Z,36.04
2022-08-10T14:44:58.157Z,36.60
2022-08-10T14:47:53.453Z,36.82
2022-08-10T14:50:31.401Z,37.18
2022-08-10T14:53:11.026Z,37.38
2022-08-10T14:55:57.592Z,37.29
2022-08-10T14:58:32.839Z,37.12
2022-08-10T15:01:07.003Z,37.14
2022-08-10T15:04:01.734Z,37.15
2022-08-10T15:06:41.874Z,37.21
2022-08-10T15:09:19.177Z,37.27
2022-08-10T15:12:15.203Z,37.48
2022-08-10T15:14:46.280Z,37.50
2022-08-10T15:17:26.367Z,37.69
2022-08-10T15:20:02.123Z,37.87
2022-08-10T15:22:49.865Z,37.95
2022-08-10T15:25:25.174Z,37.61
2022-08-10T15:28:05.791Z,37.09
2022-08-10T15:30:42.750Z,36.55
2022-08-10T15:34:03.043Z,36.57
2022-08-10T15:36:44.799Z,36.78
2022-08-10T15:40:21.893Z,36.90
2022-08-10T15:42:21.681Z,37.05
2022-08-10T15:44:55.087Z,37.31
2022-08-10T15:47:45.584Z,37.20
2022-08-10T15:50:23.138Z,37.03
2022-08-10T15:53:03.216Z,36.76
2022-08-10T15:55:45.205Z,36.66
2022-08-10T15:58:39.138Z,36.82
2022-08-10T16:02:14.908Z,36.81
2022-08-10T16:04:12.697Z,36.79
2022-08-10T16:06:47.825Z,36.88
2022-08-10T16:10:26.537Z,36.78
2022-08-10T16:12:29.187Z,36.69
2022-08-10T16:15:07.921Z,36.53
2022-08-10T16:17:55.678Z,36.77
2022-08-10T16:20:53.052Z,37.05
2022-08-10T16:23:29.841Z,37.23
2022-08-10T16:26:14.613Z,37.06
2022-08-10T16:28:52.307Z,37.26
2022-08-10T16:31:25.510Z,37.28
2022-08-10T16:33:59.488Z,36.96
2022-08-10T16:36:39.248Z,37.00
2022-08-10T16:39:16.347Z,37.06
2022-08-10T16:42:05.955Z,37.00
2022-08-10T16:44:42.418Z,36.97
2022-08-10T16:47:13.911Z,36.76
2022-08-10T16:49:44.773Z,36.64
2022-08-10T16:52:16.817Z,36.14
2022-08-10T16:54:50.547Z,35.50
2022-08-10T16:57:22.238Z,35.11
2022-08-10T16:59:57.198Z,34.98
2022-08-10T17:02:28.544Z,34.90
2022-08-10T17:04:59.617Z,34.67
2022-08-10T17:07:30.870Z,34.38
2022-08-10T17:10:07.701Z,34.31
2022-08-10T17:12:41.145Z,34.08
2022-08-10T17:15:12.689Z,33.92
2022-08-10T17:17:46.983Z,33.63
2022-08-10T17:20:30.563Z,33.27
2022-08-10T17:23:10.745Z,33.01
2022-08-10T17:25:48.746Z,32.78
2022-08-10T17:28:34.748Z,32.45
2022-08-10T17:31:24.224Z,32.03
2022-08-10T17:34:14.585Z,31.78
2022-08-10T17:36:47.782Z,31.54
2022-08-10T17:39:22.770Z,31.28
2022-08-10T17:41:55.875Z,31.16
2022-08-10T17:44:26.849Z,30.85
2022-08-10T17:46:57.942Z,30.65
2022-08-10T17:49:28.512Z,30.38
2022-08-10T17:52:02.638Z,30.07
2022-08-10T17:54:34.516Z,29.70
2022-08-10T17:57:09.261Z,29.54
2022-08-10T17:59:40.537Z,29.46
2022-08-10T18:02:15.772Z,29.30
2022-08-10T18:04:51.809Z,29.12
2022-08-10T18:07:29.148Z,28.96
2022-08-10T18:10:01.444Z,28.76
2022-08-10T18:12:40.683Z,28.58
2022-08-10T18:15:15.668Z,28.39
2022-08-10T18:17:52.488Z,28.17
2022-08-10T18:20:27.840Z,28.00
2022-08-10T18:23:00.005Z,27.87
2022-08-10T18:25:35.485Z,27.72
2022-08-10T18:28:07.893Z,27.53
2022-08-10T18:30:48.003Z,27.38
2022-08-10T18:33:24.855Z,27.21
2022-08-10T18:35:56.478Z,27.07
2022-08-10T18:38:35.300Z,26.93
2022-08-10T18:41:09.953Z,26.79
2022-08-10T18:44:06.374Z,26.64
2022-08-10T18:46:45.141Z,26.45
2022-08-10T18:49:29.953Z,26.27
2022-08-10T18:52:04.617Z,26.13
2022-08-10T18:54:45.227Z,25.95
2022-08-10T18:57:33.266Z,25.79
2022-08-10T19:00:10.691Z,25.63
2022-08-10T19:03:05.311Z,25.47
2022-08-10T19:05:57.948Z,25.32
2022-08-10T19:09:08.593Z,25.14
2022-08-10T19:12:29.927Z,24.97
2022-08-10T19:15:17.288Z,24.78
2022-08-10T19:18:07.268Z,24.63
2022-08-10T19:20:49.484Z,24.48
2022-08-10T19:23:43.164Z,24.33
2022-08-10T19:26:42.072Z,24.19
2022-08-10T19:30:11.326Z,24.01
2022-08-10T19:32:32.871Z,23.87
2022-08-10T19:35:12.090Z,23.76
2022-08-10T19:38:01.391Z,23.63
2022-08-10T19:40:44.258Z,23.52
2022-08-10T19:43:59.236Z,23.41
2022-08-10T19:46:28.642Z,23.24
2022-08-10T19:49:08.445Z,23.13
2022-08-10T19:51:52.726Z,23.01
2022-08-10T19:54:34.923Z,22.91
2022-08-10T19:57:10.472Z,22.83
2022-08-10T20:00:17.559Z,22.70
2022-08-10T20:03:03.852Z,22.57
2022-08-10T20:06:18.200Z,22.45
2022-08-10T20:08:51.765Z,22.32
2022-08-10T20:11:44.601Z,22.22
2022-08-10T20:14:23.462Z,22.08
2022-08-10T20:16:59.679Z,21.95
2022-08-10T20:19:53.460Z,21.84
2022-08-10T20:22:30.172Z,21.72
2022-08-10T20:25:07.847Z,21.62
2022-08-10T20:28:00.564Z,21.51
2022-08-10T20:30:35.607Z,21.40
2022-08-10T20:33:13.145Z,21.31
2022-08-10T20:35:53.301Z,21.21
2022-08-10T20:38:33.640Z,21.11
2022-08-10T20:41:23.199Z,20.98
2022-08-10T20:44:13.832Z,20.90
2022-08-10T20:46:54.381Z,20.81
2022-08-10T20:49:37.264Z,20.74
2022-08-10T20:52:08.335Z,20.69
2022-08-10T20:54:46.086Z,20.63
2022-08-10T20:58:07.592Z,20.55
2022-08-10T21:00:51.931Z,20.45
2022-08-10T21:03:54.027Z,20.35
2022-08-10T21:06:52.707Z,20.26
2022-08-10T21:09:39.578Z,20.14
2022-08-10T21:12:49.940Z,20.05
2022-08-10T21:15:48.621Z,19.97
2022-08-10T21:18:44.614Z,19.87
2022-08-10T21:21:57.061Z,19.78
2022-08-10T21:24:36.636Z,19.70
2022-08-10T21:27:36.198Z,19.63
2022-08-10T21:30:09.872Z,19.55
2022-08-10T21:32:54.493Z,19.48
2022-08-10T21:35:37.360Z,19.42
2022-08-10T21:38:21.333Z,19.36
2022-08-10T21:45:13.406Z,19.18
2022-08-10T21:48:20.657Z,19.10
2022-08-10T21:52:00.737Z,19.02
2022-08-10T21:54:43.689Z,18.94
2022-08-10T21:57:43.171Z,18.86
2022-08-10T22:00:33.711Z,18.77
2022-08-10T22:03:24.375Z,18.71
2022-08-10T22:06:15.083Z,18.66
2022-08-10T22:09:06.733Z,18.59
2022-08-10T22:12:08.116Z,18.54
2022-08-10T22:14:57.355Z,18.50
2022-08-10T22:21:04.848Z,18.36
2022-08-10T22:24:16.715Z,18.27
2022-08-10T22:27:46.365Z,18.20
2022-08-10T22:30:35.833Z,18.13
2022-08-10T22:31:25.113Z,19.27
2022-08-10T22:31:25.967Z,18.45
2022-08-10T22:33:44.706Z,18.05
2022-08-10T22:37:09.744Z,17.98
2022-08-10T22:40:20.210Z,17.91
2022-08-10T22:43:11.990Z,17.84
2022-08-10T22:46:07.194Z,17.79
2022-08-10T22:49:02.329Z,17.71
2022-08-10T22:51:55.539Z,17.62
2022-08-10T22:54:51.748Z,17.54
2022-08-10T22:57:39.233Z,17.51
2022-08-10T23:00:17.138Z,17.42
2022-08-10T23:02:58.846Z,17.36
2022-08-10T23:05:34.675Z,17.28
2022-08-10T23:08:30.565Z,17.22
2022-08-10T23:11:07.529Z,17.16
2022-08-10T23:13:42.966Z,17.12
2022-08-10T23:16:37.525Z,17.07
2022-08-10T23:19:18.661Z,17.00
2022-08-10T23:22:04.479Z,16.95
2022-08-10T23:24:40.617Z,16.90
2022-08-10T23:27:38.797Z,16.85
2022-08-10T23:30:10.479Z,16.79
2022-08-10T23:32:43.695Z,16.74
2022-08-10T23:36:05.681Z,16.68
2022-08-10T23:38:09.460Z,16.61
2022-08-10T23:40:45.245Z,16.55
2022-08-10T23:43:20.202Z,16.51
2022-08-10T23:45:55.092Z,16.46
2022-08-10T23:48:28.305Z,16.43
2022-08-10T23:51:01.472Z,16.38
2022-08-10T23:53:36.426Z,16.32
2022-08-10T23:56:20.983Z,16.28
2022-08-10T23:58:55.649Z,16.23
